Ted Stevens Anchorage International Airport
PANC : rendu visible

Aérodrome :











RETROUVEZ-NOUS SUR...

 
LOGIN :

S'inscrire | Disclaimer

   EN    FR    IT 

 









Légende :    VFR   VFR Marginal   IFR   IFR Intensif   IFR Très Intensif
Visi : 
Plafond : 
>= 8 km
>= 3000ft
5 à 8 km
1000 à 3000 ft
1500m à 5 km
500 à 1000 ft
800 à 1500m
200 à 500 ft
< 800m
< 200 ft
Symboles :   Orages  Brouillard  Fortes neiges  Fortes précipitations  Vent > 20 kt






- Altitude de l'aérodrome : 152 ft
- Code IATA : ANC


PANC - Ted Stevens Anchorage International

DERNIER METAR :
  • 180353Z 36004KT 10SM FEW080 M11/M21 A2992 RMK AO2 SLP137 T11111206

METARs EXPIRÉS :
  • 180253Z 00000KT 10SM FEW080 M11/M20 A2993 RMK AO2 SLP138 T11061200 51003
  • 180153Z 36006KT 10SM FEW080 M10/M20 A2992 RMK AO2 SLP138 4/008 T11001200

TAF PANC
Valide du 18 à 00h jusqu'au 19 à 06h UTC


172326Z 1800/1906 02005KT P6SM FEW080



MET'MAP, la Météo Aéronautique d'un coup d'oeil ! - Copyright ORBIFLY Décembre 2007 - Disclaimer

ORBIFLY MET'MAP TEAM :

Programmation & Développement : Alexandra Zaïnal
Sur une idée originale de : Baudouin d'Aumeries
Assistance à la programmation : Marc-Olivier Méhu
Soutien technique & logistique : Manuel Goepfert

Contact : metmap@orbifly.com




SOURCES & CREDITS :

   NOAA       Earth
Advisory